createdAt,value
2018-12-10T00:01:42.575Z,12.13
2018-12-10T00:04:25.351Z,9.37
2018-12-10T00:07:08.692Z,9.47
2018-12-10T00:09:51.348Z,11.80
2018-12-10T00:12:34.152Z,12.30
2018-12-10T00:15:16.660Z,11.17
2018-12-10T00:18:00.091Z,11.37
2018-12-10T00:20:43.464Z,14.40
2018-12-10T00:23:28.240Z,13.23
2018-12-10T00:26:12.874Z,10.90
2018-12-10T00:28:56.265Z,9.37
2018-12-10T00:31:38.544Z,9.87
2018-12-10T00:34:21.360Z,13.63
2018-12-10T00:37:03.986Z,8.43
2018-12-10T00:39:46.674Z,11.00
2018-12-10T00:42:29.396Z,12.37
2018-12-10T00:45:12.122Z,20.33
2018-12-10T00:47:55.382Z,9.20
2018-12-10T00:50:38.429Z,9.60
2018-12-10T00:53:21.263Z,14.67
2018-12-10T00:56:04.539Z,23.10
2018-12-10T00:58:47.194Z,13.27
2018-12-10T01:01:30.061Z,16.80
2018-12-10T01:04:12.701Z,16.83
2018-12-10T01:06:55.766Z,13.83
2018-12-10T01:09:38.267Z,9.07
2018-12-10T01:12:21.285Z,8.23
2018-12-10T01:15:03.582Z,9.83
2018-12-10T01:17:46.652Z,15.40
2018-12-10T01:20:29.059Z,14.07
2018-12-10T01:23:12.114Z,12.10
2018-12-10T01:25:58.643Z,19.40
2018-12-10T01:28:42.137Z,10.57
2018-12-10T01:31:24.997Z,13.60
2018-12-10T01:34:08.793Z,9.10
2018-12-10T01:36:51.355Z,19.17
2018-12-10T01:39:33.982Z,13.03
2018-12-10T01:42:16.682Z,12.60
2018-12-10T01:44:59.406Z,9.93
2018-12-10T01:47:42.366Z,8.70
2018-12-10T01:50:25.373Z,10.50
2018-12-10T01:53:07.791Z,15.43
2018-12-10T01:55:50.209Z,9.83
2018-12-10T01:58:32.819Z,11.70
2018-12-10T02:01:15.587Z,13.53
2018-12-10T02:03:58.348Z,22.77
2018-12-10T02:06:41.060Z,13.93
2018-12-10T02:09:25.722Z,15.30
2018-12-10T02:12:08.330Z,7.83
2018-12-10T02:14:50.928Z,11.03
2018-12-10T02:17:33.564Z,10.73
2018-12-10T02:20:16.357Z,11.30
2018-12-10T02:22:59.090Z,13.67
2018-12-10T02:25:42.064Z,9.93
2018-12-10T02:28:29.493Z,18.60
2018-12-10T02:31:14.601Z,12.20
2018-12-10T02:37:39.811Z,9.10
2018-12-10T02:40:22.628Z,12.47
2018-12-10T02:43:05.245Z,12.10
2018-12-10T02:45:47.977Z,12.33
2018-12-10T02:48:31.097Z,15.67
2018-12-10T02:51:14.306Z,14.63
2018-12-10T02:53:57.023Z,8.37
2018-12-10T02:56:40.587Z,16.20
2018-12-10T02:59:23.137Z,15.97
2018-12-10T03:02:06.818Z,18.33
2018-12-10T03:04:50.359Z,13.10
2018-12-10T03:07:33.441Z,13.70
2018-12-10T03:10:16.386Z,13.13
2018-12-10T03:12:58.966Z,11.70
2018-12-10T03:15:41.394Z,20.60
2018-12-10T03:18:24.879Z,13.17
2018-12-10T03:21:07.998Z,17.93
2018-12-10T03:23:50.495Z,17.90
2018-12-10T03:26:33.409Z,16.23
2018-12-10T03:29:16.202Z,13.17
2018-12-10T03:31:59.465Z,18.97
2018-12-10T03:34:42.676Z,12.97
2018-12-10T03:37:25.537Z,20.37
2018-12-10T03:40:08.111Z,9.10
2018-12-10T03:42:50.904Z,18.47
2018-12-10T03:45:33.711Z,8.00
2018-12-10T03:48:16.216Z,15.97
2018-12-10T03:50:59.009Z,12.07
2018-12-10T03:53:41.875Z,10.10
2018-12-10T03:56:24.643Z,8.97
2018-12-10T03:59:07.242Z,14.20
2018-12-10T04:01:50.194Z,16.10
2018-12-10T04:04:33.684Z,17.00
2018-12-10T04:07:16.273Z,15.63
2018-12-10T04:09:59.047Z,25.53
2018-12-10T04:12:42.130Z,9.63
2018-12-10T04:15:24.345Z,10.77
2018-12-10T04:18:07.169Z,12.50
2018-12-10T04:20:50.307Z,17.47
2018-12-10T04:23:32.778Z,92.23
2018-12-10T04:26:15.416Z,14.00
2018-12-10T04:28:58.466Z,20.47
2018-12-10T04:31:41.004Z,11.60
2018-12-10T04:34:24.261Z,16.67
2018-12-10T04:37:06.525Z,15.60
2018-12-10T04:39:49.323Z,20.90
2018-12-10T04:42:32.078Z,20.17
2018-12-10T04:45:14.810Z,23.33
2018-12-10T04:47:57.356Z,14.97
2018-12-10T04:50:40.173Z,11.60
2018-12-10T04:53:22.978Z,15.80
2018-12-10T04:56:05.692Z,12.67
2018-12-10T04:58:49.244Z,20.30
2018-12-10T05:01:31.927Z,18.97
2018-12-10T05:04:14.614Z,26.83
2018-12-10T05:06:57.185Z,66.10
2018-12-10T05:09:40.321Z,21.27
2018-12-10T05:12:23.531Z,24.10
2018-12-10T05:15:06.272Z,40.90
2018-12-10T05:17:49.325Z,21.63
2018-12-10T05:20:31.646Z,18.70
2018-12-10T05:23:14.382Z,18.73
2018-12-10T05:25:57.385Z,14.47
2018-12-10T05:28:39.706Z,19.73
2018-12-10T05:31:23.113Z,29.13
2018-12-10T05:34:06.625Z,17.57
2018-12-10T05:36:48.892Z,11.83
2018-12-10T05:39:32.006Z,15.70
2018-12-10T05:42:14.721Z,16.97
2018-12-10T05:44:58.407Z,23.27
2018-12-10T05:47:40.742Z,29.50
2018-12-10T05:50:23.683Z,13.30
2018-12-10T05:53:06.232Z,11.17
2018-12-10T05:55:48.577Z,26.70
2018-12-10T05:58:31.415Z,17.60
2018-12-10T06:01:14.058Z,17.27
2018-12-10T06:03:57.857Z,11.73
2018-12-10T06:06:40.694Z,21.83
2018-12-10T06:09:23.033Z,19.17
2018-12-10T06:12:05.768Z,17.10
2018-12-10T06:14:48.881Z,19.07
2018-12-10T06:17:32.013Z,16.90
2018-12-10T06:20:15.096Z,10.17
2018-12-10T06:22:57.425Z,12.60
2018-12-10T06:25:40.604Z,21.27
2018-12-10T06:28:23.910Z,11.47
2018-12-10T06:31:06.597Z,17.60
2018-12-10T06:33:50.194Z,18.00
2018-12-10T06:36:33.832Z,17.83
2018-12-10T06:39:16.688Z,27.40
2018-12-10T06:41:59.379Z,14.60
2018-12-10T06:44:41.710Z,19.17
2018-12-10T06:47:25.054Z,13.43
2018-12-10T06:50:09.126Z,12.70
2018-12-10T06:52:51.910Z,13.33
2018-12-10T06:55:34.595Z,22.83
2018-12-10T06:58:17.336Z,17.20
2018-12-10T07:01:01.329Z,15.50
2018-12-10T07:03:45.745Z,27.50
2018-12-10T07:06:29.449Z,17.70
2018-12-10T07:09:13.108Z,16.63
2018-12-10T07:11:55.916Z,13.30
2018-12-10T07:14:38.698Z,25.23
2018-12-10T07:17:21.709Z,34.37
2018-12-10T07:20:05.109Z,20.00
2018-12-10T07:22:47.751Z,19.17
2018-12-10T07:25:32.150Z,19.70
2018-12-10T07:28:14.761Z,15.27
2018-12-10T07:30:57.552Z,12.50
2018-12-10T07:33:40.405Z,17.30
2018-12-10T07:36:23.082Z,16.30
2018-12-10T07:39:06.995Z,22.77
2018-12-10T07:41:49.490Z,15.80
2018-12-10T07:44:32.746Z,17.90
2018-12-10T07:47:16.179Z,14.03
2018-12-10T07:49:58.849Z,14.77
2018-12-10T07:52:41.188Z,19.73
2018-12-10T07:55:23.640Z,17.87
2018-12-10T07:58:06.344Z,31.73
2018-12-10T08:00:49.545Z,22.37
2018-12-10T08:03:33.121Z,15.50
2018-12-10T08:06:15.317Z,23.87
2018-12-10T08:08:58.419Z,32.50
2018-12-10T08:11:40.678Z,27.90
2018-12-10T08:14:23.366Z,20.33
2018-12-10T08:17:06.014Z,15.47
2018-12-10T08:19:48.741Z,19.33
2018-12-10T08:22:31.444Z,43.70
2018-12-10T08:25:14.052Z,51.27
2018-12-10T08:27:57.182Z,29.83
2018-12-10T08:30:40.673Z,12.77
2018-12-10T08:33:23.061Z,28.07
2018-12-10T08:36:06.290Z,16.30
2018-12-10T08:38:49.294Z,17.27
2018-12-10T08:41:32.033Z,11.77
2018-12-10T08:44:15.054Z,15.27
2018-12-10T08:46:59.138Z,10.27
2018-12-10T08:49:42.041Z,14.13
2018-12-10T08:52:24.545Z,12.97
2018-12-10T08:55:07.559Z,16.30
2018-12-10T08:57:50.526Z,17.37
2018-12-10T09:00:33.821Z,20.17
2018-12-10T09:03:16.459Z,27.03
2018-12-10T09:05:58.710Z,17.40
2018-12-10T09:08:41.462Z,21.63
2018-12-10T09:11:31.932Z,23.90
2018-12-10T09:14:14.755Z,24.03
2018-12-10T09:16:57.425Z,32.23
2018-12-10T09:19:39.879Z,36.20
2018-12-10T09:22:22.795Z,22.33
2018-12-10T09:25:05.692Z,19.43
2018-12-10T09:27:48.179Z,13.90
2018-12-10T09:30:31.247Z,20.03
2018-12-10T09:33:14.332Z,18.43
2018-12-10T09:35:57.803Z,28.50
2018-12-10T09:38:40.702Z,20.87
2018-12-10T09:41:24.443Z,19.10
2018-12-10T09:44:07.005Z,17.73
2018-12-10T09:46:58.353Z,24.03
2018-12-10T09:49:35.062Z,15.43
2018-12-10T09:52:18.162Z,26.30
2018-12-10T09:55:01.858Z,23.67
2018-12-10T09:57:44.437Z,21.10
2018-12-10T10:00:28.205Z,14.57
2018-12-10T10:03:11.344Z,13.23
2018-12-10T10:05:56.190Z,21.93
2018-12-10T10:08:39.430Z,19.27
2018-12-10T10:11:21.924Z,24.47
2018-12-10T10:14:04.438Z,22.03
2018-12-10T10:16:47.510Z,17.80
2018-12-10T10:19:29.969Z,18.33
2018-12-10T10:22:12.668Z,30.33
2018-12-10T10:24:55.291Z,28.83
2018-12-10T10:27:38.987Z,24.97
2018-12-10T10:30:21.613Z,28.90
2018-12-10T10:33:04.253Z,18.23
2018-12-10T10:35:46.941Z,25.33
2018-12-10T10:38:29.678Z,28.10
2018-12-10T10:41:13.161Z,27.43
2018-12-10T10:43:57.960Z,22.70
2018-12-10T10:46:40.733Z,20.63
2018-12-10T10:49:23.429Z,20.70
2018-12-10T10:52:07.174Z,19.63
2018-12-10T10:54:49.935Z,19.73
2018-12-10T10:57:32.830Z,21.60
2018-12-10T11:00:20.168Z,18.27
2018-12-10T11:03:05.282Z,20.40
2018-12-10T11:05:48.594Z,16.50
2018-12-10T11:08:31.184Z,27.50
2018-12-10T11:11:13.656Z,14.47
2018-12-10T11:13:56.577Z,17.27
2018-12-10T11:16:38.970Z,24.53
2018-12-10T11:19:22.110Z,23.20
2018-12-10T11:22:05.142Z,22.63
2018-12-10T11:24:48.030Z,18.50
2018-12-10T11:27:30.687Z,25.77
2018-12-10T11:30:13.582Z,20.43
2018-12-10T11:32:58.181Z,19.30
2018-12-10T11:35:41.617Z,28.60
2018-12-10T11:38:25.430Z,19.70
2018-12-10T11:41:08.075Z,25.93
2018-12-10T11:43:50.735Z,21.00
2018-12-10T11:46:33.289Z,21.93
2018-12-10T11:49:15.694Z,20.27
2018-12-10T11:51:58.357Z,19.70
2018-12-10T11:54:41.432Z,16.13
2018-12-10T11:57:23.856Z,20.00
2018-12-10T12:00:08.902Z,16.27
2018-12-10T12:02:52.418Z,14.13
2018-12-10T12:05:35.123Z,19.00
2018-12-10T12:08:17.507Z,23.50
2018-12-10T12:11:00.181Z,25.13
2018-12-10T12:13:44.517Z,36.10
2018-12-10T12:16:27.910Z,24.33
2018-12-10T12:19:11.458Z,18.03
2018-12-10T12:21:55.949Z,21.60
2018-12-10T12:24:38.776Z,14.13
2018-12-10T12:27:23.912Z,29.53
2018-12-10T12:30:07.868Z,16.40
2018-12-10T12:32:50.740Z,25.23
2018-12-10T12:35:34.872Z,26.40
2018-12-10T12:38:29.043Z,18.67
2018-12-10T12:41:11.791Z,19.93
2018-12-10T12:43:54.913Z,22.50
2018-12-10T12:46:41.811Z,20.83
2018-12-10T12:49:31.303Z,19.43
2018-12-10T12:52:16.669Z,21.10
2018-12-10T12:55:01.253Z,17.20
2018-12-10T12:57:46.218Z,20.30
2018-12-10T13:00:29.400Z,24.57
2018-12-10T13:03:15.967Z,25.43
2018-12-10T13:06:06.819Z,12.37
2018-12-10T13:08:47.009Z,31.60
2018-12-10T13:11:41.733Z,20.73
2018-12-10T13:14:31.674Z,26.70
2018-12-10T13:17:14.249Z,29.07
2018-12-10T13:22:52.603Z,25.53
2018-12-10T13:25:35.863Z,19.07
2018-12-10T13:28:18.832Z,14.33
2018-12-10T13:31:03.913Z,30.80
2018-12-10T13:33:46.362Z,26.47
2018-12-10T13:36:30.162Z,26.80
2018-12-10T13:39:12.527Z,15.53
2018-12-10T13:41:56.073Z,19.50
2018-12-10T13:44:39.360Z,20.97
2018-12-10T13:47:22.472Z,26.03
2018-12-10T13:50:06.429Z,24.90
2018-12-10T13:52:50.963Z,23.33
2018-12-10T13:55:42.826Z,45.33
2018-12-10T13:58:29.326Z,20.97
2018-12-10T14:01:13.009Z,25.33
2018-12-10T14:03:55.686Z,15.87
2018-12-10T14:06:38.456Z,25.50
2018-12-10T14:09:24.084Z,20.73
2018-12-10T14:12:06.649Z,21.30
2018-12-10T14:14:49.669Z,21.77
2018-12-10T14:17:32.322Z,26.70
2018-12-10T14:20:14.711Z,26.23
2018-12-10T14:22:57.449Z,18.77
2018-12-10T14:25:40.392Z,21.53
2018-12-10T14:28:23.569Z,22.30
2018-12-10T14:31:07.083Z,28.67
2018-12-10T14:33:51.985Z,16.83
2018-12-10T14:36:34.853Z,24.43
2018-12-10T14:39:17.391Z,15.13
2018-12-10T14:41:59.797Z,24.50
2018-12-10T14:44:42.909Z,20.50
2018-12-10T14:50:15.108Z,43.63
2018-12-10T14:52:58.144Z,26.03
2018-12-10T14:55:41.477Z,25.50
2018-12-10T14:58:24.055Z,37.20
2018-12-10T15:01:11.402Z,27.67
2018-12-10T15:03:54.513Z,22.67
2018-12-10T15:06:37.936Z,17.57
2018-12-10T15:09:21.149Z,22.17
2018-12-10T15:12:03.798Z,26.77
2018-12-10T15:14:46.982Z,22.67
2018-12-10T15:17:29.948Z,25.97
2018-12-10T15:20:15.233Z,21.17
2018-12-10T15:22:58.434Z,19.90
2018-12-10T15:25:41.210Z,30.53
2018-12-10T15:28:24.075Z,27.77
2018-12-10T15:31:06.909Z,35.93
2018-12-10T15:33:50.132Z,25.87
2018-12-10T15:36:33.143Z,24.37
2018-12-10T15:39:16.333Z,25.80
2018-12-10T15:41:59.163Z,22.53
2018-12-10T15:44:41.898Z,31.63
2018-12-10T15:47:24.606Z,41.07
2018-12-10T15:50:07.432Z,26.27
2018-12-10T15:52:51.191Z,42.53
2018-12-10T15:55:33.597Z,37.57
2018-12-10T15:58:16.200Z,36.30
2018-12-10T16:00:59.410Z,27.87
2018-12-10T16:03:42.593Z,33.50
2018-12-10T16:06:25.353Z,20.83
2018-12-10T16:09:08.424Z,34.60
2018-12-10T16:11:51.715Z,90.30
2018-12-10T16:14:34.000Z,46.30
2018-12-10T16:17:16.560Z,73.03
2018-12-10T16:19:59.093Z,58.23
2018-12-10T16:22:41.884Z,56.33
2018-12-10T16:25:25.551Z,61.67
2018-12-10T16:28:08.113Z,23.00
2018-12-10T16:30:50.994Z,42.23
2018-12-10T16:33:33.402Z,29.03
2018-12-10T16:36:16.620Z,26.57
2018-12-10T16:38:59.901Z,31.57
2018-12-10T16:41:42.458Z,27.60
2018-12-10T16:44:25.152Z,45.63
2018-12-10T16:47:07.801Z,103.90
2018-12-10T16:49:51.098Z,89.90
2018-12-10T16:52:34.199Z,59.80
2018-12-10T16:55:17.756Z,49.33
2018-12-10T16:58:00.807Z,81.63
2018-12-10T17:00:44.064Z,30.17
2018-12-10T17:03:26.902Z,24.77
2018-12-10T17:06:09.415Z,32.83
2018-12-10T17:08:52.070Z,28.30
2018-12-10T17:11:35.852Z,55.03
2018-12-10T17:14:18.718Z,43.47
2018-12-10T17:17:01.355Z,36.07
2018-12-10T17:19:43.991Z,32.60
2018-12-10T17:22:27.151Z,87.13
2018-12-10T17:25:09.462Z,68.57
2018-12-10T17:27:51.948Z,81.63
2018-12-10T17:30:34.731Z,44.00
2018-12-10T17:33:17.518Z,72.57
2018-12-10T17:36:00.611Z,22.77
2018-12-10T17:38:43.590Z,80.50
2018-12-10T17:41:26.961Z,90.50
2018-12-10T17:44:09.394Z,83.30
2018-12-10T17:46:51.996Z,80.07
2018-12-10T17:49:35.763Z,58.13
2018-12-10T17:52:18.398Z,37.87
2018-12-10T17:55:01.145Z,51.10
2018-12-10T17:57:44.689Z,34.67
2018-12-10T18:00:27.517Z,53.30
2018-12-10T18:03:10.237Z,37.83
2018-12-10T18:05:52.877Z,27.37
2018-12-10T18:08:35.484Z,42.23
2018-12-10T18:11:18.192Z,45.83
2018-12-10T18:14:00.906Z,26.00
2018-12-10T18:16:43.854Z,43.50
2018-12-10T18:19:26.245Z,62.90
2018-12-10T18:22:08.877Z,49.47
2018-12-10T18:24:52.521Z,53.63
2018-12-10T18:27:35.054Z,52.30
2018-12-10T18:30:17.889Z,50.70
2018-12-10T18:33:00.619Z,38.07
2018-12-10T18:35:43.794Z,30.20
2018-12-10T18:38:27.545Z,61.20
2018-12-10T18:41:10.653Z,42.60
2018-12-10T18:43:53.694Z,54.43
2018-12-10T18:46:36.332Z,62.43
2018-12-10T18:49:18.782Z,85.07
2018-12-10T18:52:01.587Z,46.63
2018-12-10T18:54:44.409Z,29.73
2018-12-10T18:57:27.117Z,51.17
2018-12-10T19:00:13.021Z,46.50
2018-12-10T19:02:56.117Z,54.57
2018-12-10T19:05:38.709Z,79.53
2018-12-10T19:08:21.406Z,41.30
2018-12-10T19:11:04.121Z,52.53
2018-12-10T19:13:50.177Z,90.00
2018-12-10T19:16:33.072Z,73.60
2018-12-10T19:19:16.256Z,74.13
2018-12-10T19:21:59.092Z,55.87
2018-12-10T19:24:43.345Z,92.37
2018-12-10T19:27:25.976Z,85.97
2018-12-10T19:30:08.766Z,57.17
2018-12-10T19:32:52.364Z,61.93
2018-12-10T19:35:34.963Z,38.07
2018-12-10T19:38:17.608Z,21.83
2018-12-10T19:41:00.405Z,34.57
2018-12-10T19:43:44.405Z,65.67
2018-12-10T19:46:27.710Z,55.20
2018-12-10T19:49:10.317Z,49.50
2018-12-10T19:51:54.294Z,56.17
2018-12-10T19:54:36.945Z,62.50
2018-12-10T19:57:19.763Z,44.33
2018-12-10T20:00:13.199Z,57.27
2018-12-10T20:03:05.160Z,65.37
2018-12-10T20:06:04.869Z,73.17
2018-12-10T20:09:00.499Z,54.77
2018-12-10T20:11:46.112Z,71.07
2018-12-10T20:14:29.093Z,50.37
2018-12-10T20:17:14.054Z,88.67
2018-12-10T20:19:56.789Z,64.60
2018-12-10T20:22:39.757Z,66.40
2018-12-10T20:25:23.070Z,70.27
2018-12-10T20:28:06.563Z,102.63
2018-12-10T20:30:48.913Z,75.60
2018-12-10T20:33:32.515Z,78.53
2018-12-10T20:36:15.340Z,77.57
2018-12-10T20:38:58.133Z,54.47
2018-12-10T20:41:40.976Z,43.83
2018-12-10T20:44:23.927Z,48.37
2018-12-10T20:47:07.334Z,83.83
2018-12-10T20:49:50.601Z,60.00
2018-12-10T20:52:33.626Z,40.40
2018-12-10T20:55:17.426Z,35.77
2018-12-10T20:57:59.968Z,36.53
2018-12-10T21:00:42.793Z,109.53
2018-12-10T21:03:25.658Z,46.40
2018-12-10T21:06:12.937Z,67.00
2018-12-10T21:08:55.474Z,33.37
2018-12-10T21:11:38.222Z,65.27
2018-12-10T21:14:21.270Z,68.70
2018-12-10T21:17:04.394Z,75.37
2018-12-10T21:19:47.230Z,23.90
2018-12-10T21:22:29.995Z,36.77
2018-12-10T21:25:13.155Z,29.73
2018-12-10T21:27:56.173Z,74.37
2018-12-10T21:30:39.067Z,70.67
2018-12-10T21:33:23.429Z,50.17
2018-12-10T21:36:06.514Z,19.77
2018-12-10T21:38:48.939Z,28.93
2018-12-10T21:41:31.638Z,31.13
2018-12-10T21:44:14.728Z,55.30
2018-12-10T21:46:57.922Z,35.27
2018-12-10T21:49:40.418Z,28.27
2018-12-10T21:52:23.954Z,36.67
2018-12-10T21:55:07.510Z,51.90
2018-12-10T21:57:50.711Z,36.30
2018-12-10T22:00:33.296Z,27.53
2018-12-10T22:03:16.196Z,22.47
2018-12-10T22:05:59.002Z,52.07
2018-12-10T22:08:41.445Z,51.27
2018-12-10T22:11:24.110Z,27.80
2018-12-10T22:14:06.877Z,38.70
2018-12-10T22:16:49.650Z,36.30
2018-12-10T22:19:32.205Z,27.90
2018-12-10T22:22:14.746Z,23.40
2018-12-10T22:24:58.138Z,33.60
2018-12-10T22:27:41.156Z,27.33
2018-12-10T22:30:23.804Z,27.47
2018-12-10T22:33:06.949Z,47.23
2018-12-10T22:35:50.023Z,38.70
2018-12-10T22:38:32.629Z,56.47
2018-12-10T22:41:15.301Z,33.87
2018-12-10T22:43:57.823Z,64.97
2018-12-10T22:46:40.834Z,28.37
2018-12-10T22:49:24.255Z,35.87
2018-12-10T22:52:07.254Z,35.57
2018-12-10T22:54:50.325Z,31.50
2018-12-10T22:57:34.828Z,44.53
2018-12-10T23:00:19.927Z,45.87
2018-12-10T23:03:02.981Z,58.33
2018-12-10T23:05:46.023Z,33.43
2018-12-10T23:08:28.265Z,46.57
2018-12-10T23:11:10.953Z,64.80
2018-12-10T23:13:53.660Z,38.33
2018-12-10T23:16:36.318Z,37.63
2018-12-10T23:19:19.033Z,50.93
2018-12-10T23:22:01.829Z,47.17
2018-12-10T23:24:44.437Z,56.97
2018-12-10T23:27:27.212Z,16.20
2018-12-10T23:30:09.949Z,52.57
2018-12-10T23:32:52.565Z,29.67
2018-12-10T23:35:35.318Z,33.63
2018-12-10T23:38:18.006Z,34.13
2018-12-10T23:41:00.725Z,58.30
2018-12-10T23:43:43.376Z,53.10
2018-12-10T23:46:26.158Z,89.27
2018-12-10T23:49:08.725Z,75.53
2018-12-10T23:51:51.488Z,50.33
2018-12-10T23:54:34.257Z,63.83
2018-12-10T23:57:17.034Z,35.20
2018-12-10T23:59:59.617Z,69.13
